Airfield :
LOGIN :

Register | Disclaimer

   EN    FR    IT 

 










Legend :    VFR   Marginal VFR   IFR   Intensive IFR   Very Intensive IFR
Visi :
Ceiling :
>= 8 km
>= 3000ft
5 to 8 km
1000 to 3000 ft
1500m to 5 km
500 to 1000 ft
800 to 1500m
200 to 500 ft
< 800m
< 200 ft
Symbols :   Thunderstorms  Fog  Heavy snow  Heavy precipitations  Wind > 20 kt
SIGMETs :     Misc.  Thunderstorms  Icing  Turbulence  Mountain Waves  Volcanic Ashes







- Airport Elevation : 645 ft
- IATA code : DLE
- Download approach charts


LFGJ - Dole Tavaux

EXPIRED METARs :
  • 241430Z AUTO 20009KT 170V240 CAVOK 28/15 Q1017 NOSIG
  • 241400Z AUTO 23008KT 160V280 9999 FEW048 BKN054 BKN064 28/16 Q1017 NOSIG
  • 241330Z AUTO 23009KT 200V260 9000 SCT045 SCT060 27/17 Q1018 NOSIG
  • 241300Z AUTO 20003KT 090V240 CAVOK 27/17 Q1018 NOSIG
  • 241230Z AUTO 22005KT 150V280 9999 FEW038 BKN056 27/17 Q1018 NOSIG
  • 241200Z AUTO 26005KT 220V330 9999 SCT036 BKN054 26/18 Q1019 NOSIG

Expired Forecast.
No reported NOTAMs for that airfield.



MET'MAP, your aeronautical weather chart ! - Copyright ORBIFLY December 2007 - Disclaimer

ORBIFLY MET'MAP TEAM :

Programming & Development : Alexandra Zaïnal
Concept & Development : Baudouin d'Aumeries
Co-Development & Prog : Marc-Olivier Méhu
Technical & hardware support : Manuel Goepfert

Contact : metmap@orbifly.com




SOURCES & CREDITS :

   NOAA